Portada
METAR-TAF:

METAR-TAF

Aeroports :

Aeroport Internacional de Guangzhou-Baiyun

Canton, Xina

latitud: 23-10N, longitud: 113-20E, altitud: 8 m

Observació

L'informe es va fer fa 36 minuts, a les 03:00 UTC
Vent 8 kt del Nord-Est, variant entre Nord/Nord-Est i Est
Temperatura 28°C
Humitat 58%
Pressió 1021 hPa
Visibilitat 10 km o més
Escasses núvols a una alçada de 3000 ft

METAR: ZGGG 150300Z 05004MPS 020V080 9999 FEW030 28/19 Q1021 NOSIG

Hora: 11:36 (03:36 UTC)

Pronòstic

L'informe es va fer fa 6 hores i 34 minuts, a les 21:02 UTC
Pronòstic vàlid del 15 a les 00 UTC al 15 a les 24 UTC
Vent 8 kt del Nord/Nord-Est
Visibilitat: 8000 m
Núvols disperses a una alçada de 4000 ft

TAF: ZGGG 142102Z 1500/1524 02004MPS 8000 SCT040 TX30/1507Z TN24/1522Z

Observacions i pronòstics meteorològics de més de 4000 aeroports (METAR i TAF).

Les estacions disponibles són els punts grocs i vermells al mapa.

Posi el ratolí al punt desitjat per veure el nom de l'estació.

Feu clic per veure les observacions i els pronòstics meteorològics.

Per canviar el mapa: feu clic els botons verds amb una creu de color negre per apropar; al botó verd amb un guió per allunyar la imatge; o en les fletxes verdes per a mapes adjacents.


METAR-TAF: